createdAt,value
2018-02-02T00:03:58.854Z,2.50
2018-02-02T00:09:02.340Z,2.40
2018-02-02T00:14:06.198Z,2.40
2018-02-02T00:19:10.058Z,2.40
2018-02-02T00:24:14.267Z,2.40
2018-02-02T00:29:17.768Z,2.40
2018-02-02T00:34:20.842Z,2.60
2018-02-02T00:44:31.478Z,2.70
2018-02-02T00:49:34.545Z,2.80
2018-02-02T00:54:37.602Z,2.90
2018-02-02T00:59:40.679Z,3.00
2018-02-02T01:04:44.511Z,3.10
2018-02-02T01:09:48.994Z,3.20
2018-02-02T01:14:52.063Z,3.20
2018-02-02T01:19:56.856Z,3.20
2018-02-02T01:25:00.707Z,3.20
2018-02-02T01:30:03.836Z,3.30
2018-02-02T01:40:12.851Z,3.20
2018-02-02T01:45:17.254Z,3.20
2018-02-02T01:50:21.090Z,3.30
2018-02-02T01:55:24.170Z,3.30
2018-02-02T02:00:27.230Z,3.30
2018-02-02T02:05:30.306Z,3.40
2018-02-02T02:10:33.407Z,3.50
2018-02-02T02:15:36.862Z,3.50
2018-02-02T02:20:40.898Z,3.50
2018-02-02T02:25:44.731Z,3.60
2018-02-02T02:30:48.570Z,3.60
2018-02-02T02:35:51.647Z,3.70
2018-02-02T02:40:55.497Z,3.60
2018-02-02T02:45:58.968Z,3.70
2018-02-02T03:01:11.639Z,3.80
2018-02-02T03:06:15.465Z,3.80
2018-02-02T03:11:18.922Z,3.90
2018-02-02T03:16:23.595Z,3.90
2018-02-02T03:21:27.080Z,3.90
2018-02-02T03:26:30.259Z,3.90
2018-02-02T03:31:33.694Z,4.00
2018-02-02T03:36:37.158Z,4.00
2018-02-02T03:41:40.589Z,4.00
2018-02-02T03:46:44.494Z,4.00
2018-02-02T04:01:56.455Z,3.70
2018-02-02T04:07:00.698Z,3.60
2018-02-02T04:12:04.864Z,3.50
2018-02-02T04:17:09.076Z,3.50
2018-02-02T04:22:12.160Z,3.50
2018-02-02T04:32:19.668Z,3.50
2018-02-02T04:37:24.469Z,3.50
2018-02-02T04:42:27.557Z,3.50
2018-02-02T04:52:35.853Z,3.50
2018-02-02T04:57:38.944Z,3.50
2018-02-02T05:07:47.277Z,3.60
2018-02-02T05:17:56.371Z,3.60
2018-02-02T05:22:59.452Z,3.70
2018-02-02T05:28:02.937Z,3.70
2018-02-02T05:33:07.552Z,3.70
2018-02-02T05:38:11.036Z,3.80
2018-02-02T05:48:18.985Z,4.00
2018-02-02T05:58:27.253Z,4.00
2018-02-02T06:03:31.095Z,4.00
2018-02-02T06:08:34.215Z,4.10
2018-02-02T06:13:37.299Z,4.10
2018-02-02T06:33:54.153Z,4.20
2018-02-02T06:38:57.998Z,4.10
2018-02-02T06:44:01.080Z,4.10
2018-02-02T06:54:09.208Z,4.10
2018-02-02T06:59:13.420Z,4.10
2018-02-02T07:09:20.927Z,4.20
2018-02-02T07:14:25.529Z,4.30
2018-02-02T07:29:37.470Z,4.40
2018-02-02T07:34:40.560Z,4.50
2018-02-02T07:39:43.629Z,4.50
2018-02-02T07:44:47.845Z,4.50
2018-02-02T07:49:50.933Z,4.60
2018-02-02T07:54:54.012Z,4.60
2018-02-02T08:05:03.043Z,4.70
2018-02-02T08:10:06.132Z,4.80
2018-02-02T08:15:09.200Z,5.00
2018-02-02T08:35:26.359Z,5.00
2018-02-02T08:40:30.578Z,5.00
2018-02-02T08:45:34.412Z,5.00
2018-02-02T08:50:38.259Z,5.00
2018-02-02T09:00:52.025Z,5.40
2018-02-02T09:16:05.488Z,5.00
2018-02-02T09:21:09.348Z,5.00
2018-02-02T09:31:18.161Z,5.00
2018-02-02T09:36:21.232Z,5.10
2018-02-02T09:41:24.305Z,5.00
2018-02-02T09:46:27.387Z,5.00
2018-02-02T09:51:30.464Z,5.10
2018-02-02T10:01:38.747Z,5.00
2018-02-02T10:06:42.583Z,5.00
2018-02-02T10:11:45.663Z,5.00
2018-02-02T10:16:48.754Z,4.90
2018-02-02T10:21:51.848Z,4.90
2018-02-02T10:37:05.459Z,4.90
2018-02-02T10:42:09.290Z,4.90
2018-02-02T10:47:13.908Z,4.90
2018-02-02T11:08:13.737Z,5.10
2018-02-02T11:18:22.047Z,5.20
2018-02-02T11:28:30.311Z,5.20
2018-02-02T11:33:34.513Z,5.20
2018-02-02T11:38:38.004Z,5.20
2018-02-02T11:43:41.843Z,5.30
2018-02-02T11:48:44.937Z,5.40
2018-02-02T11:53:48.020Z,5.40
2018-02-02T12:03:57.325Z,5.70
2018-02-02T12:09:00.592Z,5.80
2018-02-02T12:14:04.442Z,5.80
2018-02-02T12:24:13.196Z,6.20
2018-02-02T12:35:16.965Z,6.40
2018-02-02T12:45:24.873Z,6.40
2018-02-02T12:50:42.316Z,6.50
2018-02-02T13:05:55.013Z,6.80
2018-02-02T13:10:58.100Z,6.80
2018-02-02T13:16:01.935Z,6.70
2018-02-02T13:26:09.684Z,6.70
2018-02-02T13:41:22.384Z,6.70
2018-02-02T13:46:25.476Z,6.60
2018-02-02T13:51:28.548Z,6.40
2018-02-02T13:56:32.392Z,6.40
2018-02-02T14:06:40.287Z,6.20
2018-02-02T14:16:47.784Z,6.00
2018-02-02T14:21:51.614Z,6.00
2018-02-02T14:37:04.658Z,6.00
2018-02-02T14:42:08.860Z,6.10
2018-02-02T14:47:12.691Z,6.20
2018-02-02T14:52:16.148Z,6.30
2018-02-02T14:57:19.212Z,6.30
2018-02-02T15:02:22.874Z,6.20
2018-02-02T15:07:27.564Z,6.20
2018-02-02T15:12:31.035Z,6.20
2018-02-02T15:17:35.260Z,6.10
2018-02-02T15:27:51.365Z,6.00
2018-02-02T15:32:55.576Z,5.90
2018-02-02T15:37:58.641Z,5.80
2018-02-02T15:48:08.771Z,5.80
2018-02-02T15:58:17.040Z,5.70
2018-02-02T16:18:35.668Z,5.50
2018-02-02T16:23:38.757Z,5.40
2018-02-02T16:54:05.042Z,5.10
2018-02-02T16:59:08.864Z,5.00
2018-02-02T17:04:13.456Z,5.00
2018-02-02T17:14:20.956Z,5.00
2018-02-02T17:24:29.966Z,5.10
2018-02-02T17:34:38.258Z,5.00
2018-02-02T17:39:41.330Z,5.00
2018-02-02T17:44:45.949Z,4.90
2018-02-02T17:49:50.160Z,4.90
2018-02-02T17:54:53.635Z,4.90
2018-02-02T17:59:57.486Z,4.90
2018-02-02T18:05:00.565Z,4.90
2018-02-02T18:10:04.044Z,4.90
2018-02-02T18:15:07.119Z,4.90
2018-02-02T18:20:11.340Z,4.90
2018-02-02T18:25:15.189Z,4.90
2018-02-02T18:30:18.275Z,4.90
2018-02-02T18:35:22.484Z,4.90
2018-02-02T18:40:26.731Z,4.90
2018-02-02T18:50:34.618Z,4.90
2018-02-02T18:55:38.840Z,4.90
2018-02-02T19:00:41.912Z,4.90
2018-02-02T19:05:46.127Z,4.90
2018-02-02T19:10:49.191Z,5.00
2018-02-02T19:15:52.288Z,4.90
2018-02-02T19:20:56.503Z,4.90
2018-02-02T19:26:00.741Z,4.90
2018-02-02T19:36:09.813Z,4.90
2018-02-02T19:41:14.027Z,4.80
2018-02-02T19:46:17.109Z,4.90
2018-02-02T19:51:20.977Z,4.90
2018-02-02T20:06:34.463Z,4.90
2018-02-02T20:16:42.412Z,4.90
2018-02-02T20:26:51.069Z,5.00
2018-02-02T20:31:54.152Z,5.00
2018-02-02T20:36:57.241Z,5.00
2018-02-02T20:47:06.289Z,5.00
2018-02-02T20:52:09.770Z,5.00
2018-02-02T21:02:18.056Z,5.00
2018-02-02T21:07:21.554Z,5.00
2018-02-02T21:12:26.167Z,5.00
2018-02-02T21:17:29.654Z,5.00
2018-02-02T21:27:37.965Z,5.00
2018-02-02T21:32:41.047Z,5.00
2018-02-02T21:37:45.650Z,5.00
2018-02-02T21:47:53.925Z,5.00
2018-02-02T21:52:57.012Z,5.00
2018-02-02T21:58:00.878Z,5.10
2018-02-02T22:03:04.360Z,5.10
2018-02-02T22:08:07.457Z,5.10
2018-02-02T22:13:10.547Z,5.10
2018-02-02T22:18:13.633Z,5.10
2018-02-02T22:28:22.737Z,5.10
2018-02-02T22:33:25.863Z,5.20
2018-02-02T22:48:38.209Z,5.10
2018-02-02T23:13:59.824Z,5.20
2018-02-02T23:19:03.671Z,5.20
2018-02-02T23:24:06.766Z,5.20
2018-02-02T23:29:10.985Z,5.20
2018-02-02T23:39:18.519Z,5.10
2018-02-02T23:44:22.747Z,5.10
2018-02-02T23:49:27.349Z,5.10
2018-02-02T23:54:30.488Z,5.10
